sensor_id;sensor_type;location;lat;lon;timestamp;pressure;altitude;pressure_sealevel;temperature;humidity
60437;BME280;46289;51.992;4.498;2023-09-07T00:01:33;101988.38;;;18.74;99.94
60437;BME280;46289;51.992;4.498;2023-09-07T00:03:35;101984.00;;;18.73;100.00
60437;BME280;46289;51.992;4.498;2023-09-07T00:05:44;101979.72;;;18.70;100.00
60437;BME280;46289;51.992;4.498;2023-09-07T00:07:50;101984.25;;;18.68;100.00
60437;BME280;46289;51.992;4.498;2023-09-07T00:09:58;101982.63;;;18.65;100.00
60437;BME280;46289;51.992;4.498;2023-09-07T00:12:05;101985.34;;;18.64;100.00
60437;BME280;46289;51.992;4.498;2023-09-07T00:14:12;101980.13;;;18.62;100.00
60437;BME280;46289;51.992;4.498;2023-09-07T00:16:23;101977.66;;;18.59;100.00
60437;BME280;46289;51.992;4.498;2023-09-07T00:18:29;101979.59;;;18.56;100.00
60437;BME280;46289;51.992;4.498;2023-09-07T00:20:34;101982.28;;;18.56;100.00
60437;BME280;46289;51.992;4.498;2023-09-07T00:22:42;101981.66;;;18.51;100.00
60437;BME280;46289;51.992;4.498;2023-09-07T00:24:47;101981.94;;;18.46;100.00
60437;BME280;46289;51.992;4.498;2023-09-07T00:26:54;101977.53;;;18.45;100.00
60437;BME280;46289;51.992;4.498;2023-09-07T00:28:59;101975.91;;;18.42;100.00
60437;BME280;46289;51.992;4.498;2023-09-07T00:31:05;101975.22;;;18.39;100.00
60437;BME280;46289;51.992;4.498;2023-09-07T00:33:12;101978.06;;;18.36;100.00
60437;BME280;46289;51.992;4.498;2023-09-07T00:35:17;101983.63;;;18.31;100.00
60437;BME280;46289;51.992;4.498;2023-09-07T00:37:23;101981.94;;;18.30;100.00
60437;BME280;46289;51.992;4.498;2023-09-07T00:39:31;101978.50;;;18.28;100.00
60437;BME280;46289;51.992;4.498;2023-09-07T00:41:36;101976.69;;;18.29;100.00
60437;BME280;46289;51.992;4.498;2023-09-07T00:43:44;101975.84;;;18.28;100.00
60437;BME280;46289;51.992;4.498;2023-09-07T00:45:49;101970.50;;;18.28;100.00
60437;BME280;46289;51.992;4.498;2023-09-07T00:47:59;101976.94;;;18.24;100.00
60437;BME280;46289;51.992;4.498;2023-09-07T00:50:08;101976.94;;;18.24;100.00
60437;BME280;46289;51.992;4.498;2023-09-07T00:52:18;101976.19;;;18.22;100.00
60437;BME280;46289;51.992;4.498;2023-09-07T00:54:26;101968.34;;;18.19;100.00
60437;BME280;46289;51.992;4.498;2023-09-07T00:56:31;101968.19;;;18.22;100.00
60437;BME280;46289;51.992;4.498;2023-09-07T00:58:36;101969.13;;;18.21;100.00
60437;BME280;46289;51.992;4.498;2023-09-07T01:00:42;101967.59;;;18.17;100.00
60437;BME280;46289;51.992;4.498;2023-09-07T01:02:48;101966.81;;;18.15;100.00
60437;BME280;46289;51.992;4.498;2023-09-07T01:04:51;101960.69;;;18.13;100.00
60437;BME280;46289;51.992;4.498;2023-09-07T01:07:03;101959.13;;;18.09;100.00
60437;BME280;46289;51.992;4.498;2023-09-07T01:09:17;101955.78;;;18.05;100.00
60437;BME280;46289;51.992;4.498;2023-09-07T01:11:21;101955.09;;;18.02;100.00
60437;BME280;46289;51.992;4.498;2023-09-07T01:13:26;101953.53;;;17.97;100.00
60437;BME280;46289;51.992;4.498;2023-09-07T01:15:32;101952.94;;;17.92;100.00
60437;BME280;46289;51.992;4.498;2023-09-07T01:17:37;101946.81;;;17.90;100.00
60437;BME280;46289;51.992;4.498;2023-09-07T01:19:46;101947.78;;;17.89;100.00
60437;BME280;46289;51.992;4.498;2023-09-07T01:21:55;101946.16;;;17.87;100.00
60437;BME280;46289;51.992;4.498;2023-09-07T01:24:05;101955.13;;;17.84;100.00
60437;BME280;46289;51.992;4.498;2023-09-07T01:26:11;101953.50;;;17.82;100.00
60437;BME280;46289;51.992;4.498;2023-09-07T01:28:17;101950.13;;;17.78;100.00
60437;BME280;46289;51.992;4.498;2023-09-07T01:30:28;101953.97;;;17.72;100.00
60437;BME280;46289;51.992;4.498;2023-09-07T01:32:37;101949.69;;;17.70;100.00
60437;BME280;46289;51.992;4.498;2023-09-07T01:34:44;101954.38;;;17.65;100.00
60437;BME280;46289;51.992;4.498;2023-09-07T01:36:50;101944.94;;;17.59;100.00
60437;BME280;46289;51.992;4.498;2023-09-07T01:39:00;101949.34;;;17.59;100.00
60437;BME280;46289;51.992;4.498;2023-09-07T01:41:05;101948.84;;;17.52;100.00
60437;BME280;46289;51.992;4.498;2023-09-07T01:43:11;101954.06;;;17.53;100.00
60437;BME280;46289;51.992;4.498;2023-09-07T01:45:16;101951.56;;;17.50;100.00
60437;BME280;46289;51.992;4.498;2023-09-07T01:47:21;101949.78;;;17.51;100.00
60437;BME280;46289;51.992;4.498;2023-09-07T01:49:27;101952.50;;;17.49;100.00
60437;BME280;46289;51.992;4.498;2023-09-07T01:51:33;101951.88;;;17.44;100.00
60437;BME280;46289;51.992;4.498;2023-09-07T01:53:39;101948.69;;;17.38;100.00
60437;BME280;46289;51.992;4.498;2023-09-07T01:55:47;101955.00;;;17.35;100.00
60437;BME280;46289;51.992;4.498;2023-09-07T01:57:57;101955.78;;;17.37;100.00
60437;BME280;46289;51.992;4.498;2023-09-07T02:00:04;101956.91;;;17.33;100.00
60437;BME280;46289;51.992;4.498;2023-09-07T02:02:10;101953.63;;;17.28;100.00
60437;BME280;46289;51.992;4.498;2023-09-07T02:04:15;101956.34;;;17.26;100.00
60437;BME280;46289;51.992;4.498;2023-09-07T02:06:20;101960.97;;;17.23;100.00
60437;BME280;46289;51.992;4.498;2023-09-07T02:08:28;101953.91;;;17.22;100.00
60437;BME280;46289;51.992;4.498;2023-09-07T02:10:33;101961.34;;;17.15;100.00
60437;BME280;46289;51.992;4.498;2023-09-07T02:12:45;101954.16;;;17.17;100.00
60437;BME280;46289;51.992;4.498;2023-09-07T02:14:50;101960.34;;;17.18;100.00
60437;BME280;46289;51.992;4.498;2023-09-07T02:16:57;101951.50;;;17.17;100.00
60437;BME280;46289;51.992;4.498;2023-09-07T02:19:03;101955.94;;;17.17;100.00
60437;BME280;46289;51.992;4.498;2023-09-07T02:21:09;101955.94;;;17.17;100.00
60437;BME280;46289;51.992;4.498;2023-09-07T02:23:18;101955.94;;;17.17;100.00
60437;BME280;46289;51.992;4.498;2023-09-07T02:25:24;101948.75;;;17.19;100.00
60437;BME280;46289;51.992;4.498;2023-09-07T02:27:29;101945.03;;;17.23;100.00
60437;BME280;46289;51.992;4.498;2023-09-07T02:29:34;101951.88;;;17.27;100.00
60437;BME280;46289;51.992;4.498;2023-09-07T02:31:40;101951.81;;;17.28;100.00
60437;BME280;46289;51.992;4.498;2023-09-07T02:33:43;101948.16;;;17.31;100.00
60437;BME280;46289;51.992;4.498;2023-09-07T02:35:51;101947.03;;;17.35;100.00
60437;BME280;46289;51.992;4.498;2023-09-07T02:37:56;101950.63;;;17.34;100.00
60437;BME280;46289;51.992;4.498;2023-09-07T02:40:03;101941.72;;;17.35;100.00
60437;BME280;46289;51.992;4.498;2023-09-07T02:42:09;101950.31;;;17.40;100.00
60437;BME280;46289;51.992;4.498;2023-09-07T02:44:14;101945.72;;;17.44;100.00
60437;BME280;46289;51.992;4.498;2023-09-07T02:46:23;101953.69;;;17.44;100.00
60437;BME280;46289;51.992;4.498;2023-09-07T02:48:29;101954.53;;;17.44;100.00
60437;BME280;46289;51.992;4.498;2023-09-07T02:50:35;101952.97;;;17.40;100.00
60437;BME280;46289;51.992;4.498;2023-09-07T02:52:39;101946.91;;;17.38;100.00
60437;BME280;46289;51.992;4.498;2023-09-07T02:54:44;101952.44;;;17.33;100.00
60437;BME280;46289;51.992;4.498;2023-09-07T02:56:49;101949.16;;;17.28;100.00
60437;BME280;46289;51.992;4.498;2023-09-07T02:58:58;101956.19;;;17.29;100.00
60437;BME280;46289;51.992;4.498;2023-09-07T03:01:06;101954.47;;;17.28;100.00
60437;BME280;46289;51.992;4.498;2023-09-07T03:03:15;101955.44;;;17.27;100.00
60437;BME280;46289;51.992;4.498;2023-09-07T03:05:20;101952.84;;;17.26;100.00
60437;BME280;46289;51.992;4.498;2023-09-07T03:07:33;101956.44;;;17.25;100.00
60437;BME280;46289;51.992;4.498;2023-09-07T03:09:41;101953.69;;;17.26;100.00
60437;BME280;46289;51.992;4.498;2023-09-07T03:11:49;101955.50;;;17.26;100.00
60437;BME280;46289;51.992;4.498;2023-09-07T03:13:55;101958.94;;;17.28;100.00
60437;BME280;46289;51.992;4.498;2023-09-07T03:16:01;101953.84;;;17.23;100.00
60437;BME280;46289;51.992;4.498;2023-09-07T03:18:07;101961.25;;;17.17;100.00
60437;BME280;46289;51.992;4.498;2023-09-07T03:20:16;101955.25;;;17.13;100.00
60437;BME280;46289;51.992;4.498;2023-09-07T03:22:19;101961.88;;;17.04;100.00
60437;BME280;46289;51.992;4.498;2023-09-07T03:24:25;101958.66;;;16.98;100.00
60437;BME280;46289;51.992;4.498;2023-09-07T03:26:32;101963.44;;;16.91;100.00
60437;BME280;46289;51.992;4.498;2023-09-07T03:28:37;101959.34;;;16.84;100.00
60437;BME280;46289;51.992;4.498;2023-09-07T03:30:43;101954.19;;;16.81;100.00
60437;BME280;46289;51.992;4.498;2023-09-07T03:32:46;101948.88;;;16.81;100.00
60437;BME280;46289;51.992;4.498;2023-09-07T03:34:51;101952.19;;;16.86;100.00
60437;BME280;46289;51.992;4.498;2023-09-07T03:36:59;101951.22;;;16.87;100.00
60437;BME280;46289;51.992;4.498;2023-09-07T03:39:08;101954.81;;;16.86;100.00
60437;BME280;46289;51.992;4.498;2023-09-07T03:41:13;101950.53;;;16.83;100.00
60437;BME280;46289;51.992;4.498;2023-09-07T03:43:17;101944.28;;;16.84;100.00
60437;BME280;46289;51.992;4.498;2023-09-07T03:45:22;101948.78;;;16.82;100.00
60437;BME280;46289;51.992;4.498;2023-09-07T03:47:27;101945.28;;;16.82;100.00
60437;BME280;46289;51.992;4.498;2023-09-07T03:49:33;101946.41;;;16.76;100.00
60437;BME280;46289;51.992;4.498;2023-09-07T03:51:38;101955.22;;;16.77;100.00
60437;BME280;46289;51.992;4.498;2023-09-07T03:53:46;101958.19;;;16.71;100.00
60437;BME280;46289;51.992;4.498;2023-09-07T03:55:52;101949.81;;;16.61;100.00
60437;BME280;46289;51.992;4.498;2023-09-07T03:58:00;101958.00;;;16.56;100.00
60437;BME280;46289;51.992;4.498;2023-09-07T04:00:08;101961.72;;;16.52;100.00
60437;BME280;46289;51.992;4.498;2023-09-07T04:02:10;101966.38;;;16.47;100.00
60437;BME280;46289;51.992;4.498;2023-09-07T04:04:17;101967.50;;;16.43;100.00
60437;BME280;46289;51.992;4.498;2023-09-07T04:06:22;101966.84;;;16.38;100.00
60437;BME280;46289;51.992;4.498;2023-09-07T04:08:28;101973.00;;;16.38;100.00
60437;BME280;46289;51.992;4.498;2023-09-07T04:10:39;101969.84;;;16.30;100.00
60437;BME280;46289;51.992;4.498;2023-09-07T04:12:45;101972.41;;;16.32;100.00
60437;BME280;46289;51.992;4.498;2023-09-07T04:14:51;101970.75;;;16.29;100.00
60437;BME280;46289;51.992;4.498;2023-09-07T04:16:57;101968.84;;;16.33;100.00
60437;BME280;46289;51.992;4.498;2023-09-07T04:19:03;101962.66;;;16.32;100.00
60437;BME280;46289;51.992;4.498;2023-09-07T04:21:12;101963.75;;;16.28;100.00
60437;BME280;46289;51.992;4.498;2023-09-07T04:23:18;101968.25;;;16.26;100.00
60437;BME280;46289;51.992;4.498;2023-09-07T04:25:26;101966.69;;;16.22;100.00
60437;BME280;46289;51.992;4.498;2023-09-07T04:27:36;101972.00;;;16.22;100.00
60437;BME280;46289;51.992;4.498;2023-09-07T04:29:44;101972.25;;;16.16;100.00
60437;BME280;46289;51.992;4.498;2023-09-07T04:31:52;101970.56;;;16.15;100.00
60437;BME280;46289;51.992;4.498;2023-09-07T04:34:00;101972.47;;;16.11;100.00
60437;BME280;46289;51.992;4.498;2023-09-07T04:36:09;101968.09;;;16.10;100.00
60437;BME280;46289;51.992;4.498;2023-09-07T04:38:17;101970.03;;;16.07;100.00
60437;BME280;46289;51.992;4.498;2023-09-07T04:40:23;101969.94;;;16.08;100.00
60437;BME280;46289;51.992;4.498;2023-09-07T04:42:34;101970.19;;;16.04;100.00
60437;BME280;46289;51.992;4.498;2023-09-07T04:44:40;101958.84;;;16.00;100.00
60437;BME280;46289;51.992;4.498;2023-09-07T04:46:47;101968.53;;;16.01;100.00
60437;BME280;46289;51.992;4.498;2023-09-07T04:48:56;101965.00;;;16.00;100.00
60437;BME280;46289;51.992;4.498;2023-09-07T04:51:05;101976.41;;;16.02;100.00
60437;BME280;46289;51.992;4.498;2023-09-07T04:53:14;101978.41;;;15.97;100.00
60437;BME280;46289;51.992;4.498;2023-09-07T04:55:19;101977.41;;;16.00;100.00
60437;BME280;46289;51.992;4.498;2023-09-07T04:57:29;101974.94;;;15.95;100.00
60437;BME280;46289;51.992;4.498;2023-09-07T04:59:35;101979.81;;;15.86;100.00
60437;BME280;46289;51.992;4.498;2023-09-07T05:01:40;101986.91;;;15.85;100.00
60437;BME280;46289;51.992;4.498;2023-09-07T05:03:46;101986.84;;;15.87;100.00
60437;BME280;46289;51.992;4.498;2023-09-07T05:05:56;101990.66;;;15.79;100.00
60437;BME280;46289;51.992;4.498;2023-09-07T05:08:03;101984.84;;;15.92;100.00
60437;BME280;46289;51.992;4.498;2023-09-07T05:10:16;101987.69;;;15.87;100.00
60437;BME280;46289;51.992;4.498;2023-09-07T05:12:21;101993.97;;;15.85;100.00
60437;BME280;46289;51.992;4.498;2023-09-07T05:14:29;101986.84;;;15.87;100.00
60437;BME280;46289;51.992;4.498;2023-09-07T05:17:13;101998.03;;;15.93;100.00
60437;BME280;46289;51.992;4.498;2023-09-07T05:22:55;101993.44;;;15.97;100.00
60437;BME280;46289;51.992;4.498;2023-09-07T05:25:43;101989.94;;;15.96;100.00
60437;BME280;46289;51.992;4.498;2023-09-07T05:28:32;101987.28;;;15.96;100.00
60437;BME280;46289;51.992;4.498;2023-09-07T05:33:44;101987.44;;;15.93;100.00
60437;BME280;46289;51.992;4.498;2023-09-07T05:33:52;101995.31;;;15.95;100.00
60437;BME280;46289;51.992;4.498;2023-09-07T05:36:02;101990.94;;;15.94;100.00
60437;BME280;46289;51.992;4.498;2023-09-07T05:38:09;101997.09;;;15.94;100.00
60437;BME280;46289;51.992;4.498;2023-09-07T05:40:14;101995.06;;;16.01;100.00
60437;BME280;46289;51.992;4.498;2023-09-07T05:42:18;101995.28;;;16.15;100.00
60437;BME280;46289;51.992;4.498;2023-09-07T05:44:31;101988.47;;;16.29;100.00
60437;BME280;46289;51.992;4.498;2023-09-07T05:46:45;101997.44;;;16.45;100.00
60437;BME280;46289;51.992;4.498;2023-09-07T05:49:02;101995.00;;;16.59;100.00
60437;BME280;46289;51.992;4.498;2023-09-07T05:51:08;102002.25;;;16.75;100.00
60437;BME280;46289;51.992;4.498;2023-09-07T05:53:14;101998.97;;;16.88;100.00
60437;BME280;46289;51.992;4.498;2023-09-07T05:55:17;101993.91;;;17.01;100.00
60437;BME280;46289;51.992;4.498;2023-09-07T05:57:26;101995.19;;;17.11;100.00
60437;BME280;46289;51.992;4.498;2023-09-07T05:59:31;101998.06;;;17.24;100.00
60437;BME280;46289;51.992;4.498;2023-09-07T06:01:41;102002.53;;;17.41;100.00
60437;BME280;46289;51.992;4.498;2023-09-07T06:03:48;101997.31;;;17.57;100.00
60437;BME280;46289;51.992;4.498;2023-09-07T06:06:03;102000.03;;;17.73;100.00
60437;BME280;46289;51.992;4.498;2023-09-07T06:08:09;102006.28;;;17.89;100.00
60437;BME280;46289;51.992;4.498;2023-09-07T06:10:18;102003.59;;;18.07;100.00
60437;BME280;46289;51.992;4.498;2023-09-07T06:12:26;102003.63;;;18.23;100.00
60437;BME280;46289;51.992;4.498;2023-09-07T06:14:31;102007.00;;;18.42;100.00
60437;BME280;46289;51.992;4.498;2023-09-07T06:16:37;102005.47;;;18.54;100.00
60437;BME280;46289;51.992;4.498;2023-09-07T06:18:43;102015.44;;;18.66;100.00
60437;BME280;46289;51.992;4.498;2023-09-07T06:22:19;102012.91;;;18.80;100.00
60437;BME280;46289;51.992;4.498;2023-09-07T06:23:59;102024.91;;;18.88;100.00
60437;BME280;46289;51.992;4.498;2023-09-07T06:26:04;102025.00;;;19.02;100.00
60437;BME280;46289;51.992;4.498;2023-09-07T06:28:09;102026.84;;;19.16;100.00
60437;BME280;46289;51.992;4.498;2023-09-07T06:30:16;102032.25;;;19.30;100.00
60437;BME280;46289;51.992;4.498;2023-09-07T06:32:22;102023.78;;;19.38;99.69
60437;BME280;46289;51.992;4.498;2023-09-07T06:34:27;102024.69;;;19.52;99.05
60437;BME280;46289;51.992;4.498;2023-09-07T06:36:33;102023.91;;;19.66;98.10
60437;BME280;46289;51.992;4.498;2023-09-07T06:38:49;102019.72;;;19.77;97.45
60437;BME280;46289;51.992;4.498;2023-09-07T06:40:59;102022.13;;;19.81;95.87
60437;BME280;46289;51.992;4.498;2023-09-07T06:43:17;102021.16;;;19.82;95.67
60437;BME280;46289;51.992;4.498;2023-09-07T06:45:26;102017.47;;;19.99;94.93
60437;BME280;46289;51.992;4.498;2023-09-07T06:47:31;102012.72;;;20.04;93.88
60437;BME280;46289;51.992;4.498;2023-09-07T06:49:39;102018.91;;;20.19;92.96
60437;BME280;46289;51.992;4.498;2023-09-07T06:51:48;102019.28;;;20.27;92.67
60437;BME280;46289;51.992;4.498;2023-09-07T06:53:59;102019.84;;;20.47;92.20
60437;BME280;46289;51.992;4.498;2023-09-07T06:56:10;102012.69;;;20.61;91.23
60437;BME280;46289;51.992;4.498;2023-09-07T06:58:22;102020.78;;;20.74;90.45
60437;BME280;46289;51.992;4.498;2023-09-07T07:00:28;102020.34;;;20.95;89.93
60437;BME280;46289;51.992;4.498;2023-09-07T07:02:37;102019.41;;;20.96;88.01
60437;BME280;46289;51.992;4.498;2023-09-07T07:04:48;102022.31;;;21.05;87.79
60437;BME280;46289;51.992;4.498;2023-09-07T07:06:56;102017.25;;;21.28;86.84
60437;BME280;46289;51.992;4.498;2023-09-07T07:09:05;102018.00;;;21.30;86.27
60437;BME280;46289;51.992;4.498;2023-09-07T07:11:14;102020.25;;;21.36;84.66
60437;BME280;46289;51.992;4.498;2023-09-07T07:13:19;102007.59;;;21.53;84.14
60437;BME280;46289;51.992;4.498;2023-09-07T07:15:27;102018.53;;;21.75;83.66
60437;BME280;46289;51.992;4.498;2023-09-07T07:17:38;102013.72;;;21.80;83.49
60437;BME280;46289;51.992;4.498;2023-09-07T07:19:43;102025.28;;;21.81;81.77
60437;BME280;46289;51.992;4.498;2023-09-07T07:21:51;102025.41;;;22.05;82.19
60437;BME280;46289;51.992;4.498;2023-09-07T07:23:56;102024.66;;;22.28;80.07
60437;BME280;46289;51.992;4.498;2023-09-07T07:26:07;102012.22;;;22.27;79.85
60437;BME280;46289;51.992;4.498;2023-09-07T07:28:18;102021.66;;;22.33;79.22
60437;BME280;46289;51.992;4.498;2023-09-07T07:30:27;102011.66;;;22.48;78.75
60437;BME280;46289;51.992;4.498;2023-09-07T07:32:38;102008.88;;;22.49;77.97
60437;BME280;46289;51.992;4.498;2023-09-07T07:34:45;102016.16;;;22.84;78.61
60437;BME280;46289;51.992;4.498;2023-09-07T07:36:51;102008.94;;;22.85;76.80
60437;BME280;46289;51.992;4.498;2023-09-07T07:38:57;102004.06;;;22.78;76.76
60437;BME280;46289;51.992;4.498;2023-09-07T07:41:06;102002.13;;;22.81;76.46
60437;BME280;46289;51.992;4.498;2023-09-07T07:43:12;102002.72;;;22.97;76.20
60437;BME280;46289;51.992;4.498;2023-09-07T07:45:20;102000.47;;;23.39;74.73
60437;BME280;46289;51.992;4.498;2023-09-07T07:47:28;101997.09;;;23.59;73.36
60437;BME280;46289;51.992;4.498;2023-09-07T07:49:33;101999.78;;;23.59;72.57
60437;BME280;46289;51.992;4.498;2023-09-07T07:51:37;101995.50;;;23.57;72.82
60437;BME280;46289;51.992;4.498;2023-09-07T07:53:50;101991.56;;;23.96;72.13
60437;BME280;46289;51.992;4.498;2023-09-07T07:55:58;101993.50;;;23.94;71.05
60437;BME280;46289;51.992;4.498;2023-09-07T07:58:03;101988.16;;;23.94;70.78
60437;BME280;46289;51.992;4.498;2023-09-07T08:00:13;101987.41;;;23.92;70.56
60437;BME280;46289;51.992;4.498;2023-09-07T08:02:21;101993.63;;;24.04;69.96
60437;BME280;46289;51.992;4.498;2023-09-07T08:04:28;101986.06;;;24.20;69.34
60437;BME280;46289;51.992;4.498;2023-09-07T08:06:37;101984.22;;;24.21;68.61
60437;BME280;46289;51.992;4.498;2023-09-07T08:08:48;101991.53;;;24.30;68.55
60437;BME280;46289;51.992;4.498;2023-09-07T08:11:09;101991.06;;;24.47;67.69
60437;BME280;46289;51.992;4.498;2023-09-07T08:13:17;101987.50;;;24.58;66.73
60437;BME280;46289;51.992;4.498;2023-09-07T08:15:23;101987.28;;;24.50;67.04
60437;BME280;46289;51.992;4.498;2023-09-07T08:17:31;101987.41;;;24.92;66.22
60437;BME280;46289;51.992;4.498;2023-09-07T08:19:38;101985.72;;;24.91;67.23
60437;BME280;46289;51.992;4.498;2023-09-07T08:21:48;101976.22;;;24.75;64.97
60437;BME280;46289;51.992;4.498;2023-09-07T08:23:55;101979.72;;;24.87;63.90
60437;BME280;46289;51.992;4.498;2023-09-07T08:26:06;101974.53;;;25.07;63.68
60437;BME280;46289;51.992;4.498;2023-09-07T08:28:18;101980.47;;;24.89;64.03
60437;BME280;46289;51.992;4.498;2023-09-07T08:30:22;101975.38;;;24.75;63.25
60437;BME280;46289;51.992;4.498;2023-09-07T08:32:30;101974.19;;;25.00;63.60
60437;BME280;46289;51.992;4.498;2023-09-07T08:34:40;101976.75;;;25.02;63.38
60437;BME280;46289;51.992;4.498;2023-09-07T08:36:46;101969.97;;;25.39;62.80
60437;BME280;46289;51.992;4.498;2023-09-07T08:38:57;101969.84;;;25.62;60.84
60437;BME280;46289;51.992;4.498;2023-09-07T08:41:08;101979.16;;;25.58;61.32
60437;BME280;46289;51.992;4.498;2023-09-07T08:43:16;101979.69;;;25.52;62.26
60437;BME280;46289;51.992;4.498;2023-09-07T08:45:26;101976.13;;;25.72;61.51
60437;BME280;46289;51.992;4.498;2023-09-07T08:47:39;101977.91;;;25.83;61.72
60437;BME280;46289;51.992;4.498;2023-09-07T08:49:47;101971.91;;;26.00;60.85
60437;BME280;46289;51.992;4.498;2023-09-07T08:51:59;101959.38;;;26.20;59.55
60437;BME280;46289;51.992;4.498;2023-09-07T08:54:13;101963.06;;;26.29;60.21
60437;BME280;46289;51.992;4.498;2023-09-07T08:56:26;101971.28;;;26.27;60.74
60437;BME280;46289;51.992;4.498;2023-09-07T08:58:34;101967.31;;;26.32;59.44
60437;BME280;46289;51.992;4.498;2023-09-07T09:00:42;101960.97;;;26.42;59.65
60437;BME280;46289;51.992;4.498;2023-09-07T09:02:58;101960.88;;;26.54;58.34
60437;BME280;46289;51.992;4.498;2023-09-07T09:05:05;101961.13;;;26.50;59.17
60437;BME280;46289;51.992;4.498;2023-09-07T09:07:12;101967.44;;;26.70;58.06
60437;BME280;46289;51.992;4.498;2023-09-07T09:09:22;101958.06;;;26.84;58.08
60437;BME280;46289;51.992;4.498;2023-09-07T09:11:29;101961.47;;;26.67;58.36
60437;BME280;46289;51.992;4.498;2023-09-07T09:13:35;101957.94;;;26.76;57.35
60437;BME280;46289;51.992;4.498;2023-09-07T09:15:43;101949.56;;;26.79;58.12
60437;BME280;46289;51.992;4.498;2023-09-07T09:17:56;101956.06;;;26.96;58.19
60437;BME280;46289;51.992;4.498;2023-09-07T09:20:02;101958.66;;;27.27;57.20
60437;BME280;46289;51.992;4.498;2023-09-07T09:22:17;101953.06;;;27.57;56.63
60437;BME280;46289;51.992;4.498;2023-09-07T09:24:23;101954.81;;;27.10;56.45
60437;BME280;46289;51.992;4.498;2023-09-07T09:26:28;101956.84;;;27.18;56.12
60437;BME280;46289;51.992;4.498;2023-09-07T09:28:34;101950.56;;;27.07;56.39
60437;BME280;46289;51.992;4.498;2023-09-07T09:30:39;101948.97;;;27.44;55.85
60437;BME280;46289;51.992;4.498;2023-09-07T09:32:50;101955.53;;;27.41;54.17
60437;BME280;46289;51.992;4.498;2023-09-07T09:34:58;101955.81;;;27.28;55.61
60437;BME280;46289;51.992;4.498;2023-09-07T09:37:12;101962.72;;;27.50;55.96
60437;BME280;46289;51.992;4.498;2023-09-07T09:39:24;101963.66;;;27.69;54.66
60437;BME280;46289;51.992;4.498;2023-09-07T09:41:31;101961.22;;;27.85;54.71
60437;BME280;46289;51.992;4.498;2023-09-07T09:43:37;101964.03;;;27.93;53.90
60437;BME280;46289;51.992;4.498;2023-09-07T09:45:43;101964.47;;;28.26;53.52
60437;BME280;46289;51.992;4.498;2023-09-07T09:47:53;101961.53;;;27.72;54.28
60437;BME280;46289;51.992;4.498;2023-09-07T09:50:02;101960.75;;;27.99;53.89
60437;BME280;46289;51.992;4.498;2023-09-07T09:52:08;101957.31;;;28.07;54.56
60437;BME280;46289;51.992;4.498;2023-09-07T09:54:16;101962.88;;;28.33;53.86
60437;BME280;46289;51.992;4.498;2023-09-07T09:56:21;101957.81;;;28.20;53.21
60437;BME280;46289;51.992;4.498;2023-09-07T09:58:28;101960.00;;;28.35;53.16
60437;BME280;46289;51.992;4.498;2023-09-07T10:00:36;101963.78;;;28.14;52.82
60437;BME280;46289;51.992;4.498;2023-09-07T10:02:42;101954.34;;;28.56;51.56
60437;BME280;46289;51.992;4.498;2023-09-07T10:04:51;101953.59;;;28.36;52.00
60437;BME280;46289;51.992;4.498;2023-09-07T10:06:59;101958.06;;;28.73;51.77
60437;BME280;46289;51.992;4.498;2023-09-07T10:09:04;101943.41;;;28.02;52.48
60437;BME280;46289;51.992;4.498;2023-09-07T10:11:25;101942.16;;;27.96;53.00
60437;BME280;46289;51.992;4.498;2023-09-07T10:13:32;101937.81;;;28.77;53.01
60437;BME280;46289;51.992;4.498;2023-09-07T10:15:38;101930.84;;;28.92;51.04
60437;BME280;46289;51.992;4.498;2023-09-07T10:17:46;101934.00;;;28.87;51.06
60437;BME280;46289;51.992;4.498;2023-09-07T10:20:05;101940.66;;;28.93;50.80
60437;BME280;46289;51.992;4.498;2023-09-07T10:22:20;101940.53;;;29.13;50.40
60437;BME280;46289;51.992;4.498;2023-09-07T10:24:27;101942.53;;;29.10;48.86
60437;BME280;46289;51.992;4.498;2023-09-07T10:26:33;101935.56;;;28.90;49.83
60437;BME280;46289;51.992;4.498;2023-09-07T10:28:38;101938.44;;;28.88;48.64
60437;BME280;46289;51.992;4.498;2023-09-07T10:30:45;101937.09;;;29.28;47.91
60437;BME280;46289;51.992;4.498;2023-09-07T10:32:50;101932.72;;;29.36;49.03
60437;BME280;46289;51.992;4.498;2023-09-07T10:34:59;101944.00;;;29.23;49.62
60437;BME280;46289;51.992;4.498;2023-09-07T10:37:07;101936.09;;;29.12;49.49
60437;BME280;46289;51.992;4.498;2023-09-07T10:39:16;101929.41;;;29.42;48.60
60437;BME280;46289;51.992;4.498;2023-09-07T10:41:24;101927.38;;;29.44;48.32
60437;BME280;46289;51.992;4.498;2023-09-07T10:43:33;101928.22;;;29.44;48.56
60437;BME280;46289;51.992;4.498;2023-09-07T10:45:46;101931.38;;;29.14;48.24
60437;BME280;46289;51.992;4.498;2023-09-07T10:47:52;101940.03;;;29.17;48.44
60437;BME280;46289;51.992;4.498;2023-09-07T10:49:59;101927.47;;;29.34;47.68
60437;BME280;46289;51.992;4.498;2023-09-07T10:52:08;101925.19;;;29.73;47.81
60437;BME280;46289;51.992;4.498;2023-09-07T10:54:15;101927.03;;;29.99;46.36
60437;BME280;46289;51.992;4.498;2023-09-07T10:56:27;101930.19;;;29.86;47.02
60437;BME280;46289;51.992;4.498;2023-09-07T10:58:33;101927.25;;;29.53;46.62
60437;BME280;46289;51.992;4.498;2023-09-07T11:00:40;101920.47;;;29.75;46.22
60437;BME280;46289;51.992;4.498;2023-09-07T11:02:46;101919.53;;;30.01;45.97
60437;BME280;46289;51.992;4.498;2023-09-07T11:04:51;101919.84;;;30.32;45.32
60437;BME280;46289;51.992;4.498;2023-09-07T11:06:57;101914.63;;;30.47;44.99
60437;BME280;46289;51.992;4.498;2023-09-07T11:09:05;101918.38;;;30.62;45.46
60437;BME280;46289;51.992;4.498;2023-09-07T11:11:13;101915.16;;;30.59;44.39